Time;durP1;ratioP1;P1;durP2;ratioP2;P2;SDS_P1;SDS_P2;PMS_P1;PMS_P2;Temp;Humidity;BMP_temperature;BMP_pressure;BME280_temperature;BME280_humidity;BME280_pressure;Samples;Min_cycle;Max_cycle;Signal;HPM_P1;HPM_P2
2023/01/09 00:00:52;;;;;;;1999.90;999.90;;;;;;;5.40;100.00;93630.41;5009309;28;20183;-72
2023/01/09 00:03:18;;;;;;;1999.90;999.90;;;;;;;5.39;100.00;93628.91;5009945;28;20207;-72
2023/01/09 00:05:43;;;;;;;1999.90;999.90;;;;;;;5.33;100.00;93631.31;5009335;28;20220;-72
2023/01/09 00:08:08;;;;;;;1999.90;999.90;;;;;;;5.35;100.00;93645.19;5009433;28;20204;-73
2023/01/09 00:10:34;;;;;;;1999.90;999.90;;;;;;;5.38;100.00;93643.59;5009092;28;20354;-71
2023/01/09 00:12:59;;;;;;;1999.90;999.90;;;;;;;5.42;100.00;93650.47;5009116;28;20212;-72
2023/01/09 00:15:25;;;;;;;1999.90;999.90;;;;;;;5.42;100.00;93652.41;5009074;28;20224;-72
2023/01/09 00:17:50;;;;;;;1999.90;999.90;;;;;;;5.47;100.00;93654.66;5009305;28;20198;-72
2023/01/09 00:20:16;;;;;;;1999.90;999.90;;;;;;;5.50;100.00;93651.13;5008917;28;20216;-72
2023/01/09 00:22:41;;;;;;;1999.90;999.90;;;;;;;5.51;100.00;93660.78;5009373;28;20231;-72
2023/01/09 00:25:07;;;;;;;1999.90;999.90;;;;;;;5.52;100.00;93659.59;5008979;28;20197;-72
2023/01/09 00:27:33;;;;;;;1999.90;999.90;;;;;;;5.55;100.00;93658.75;5008997;28;20193;-72
2023/01/09 00:29:59;;;;;;;1999.90;999.90;;;;;;;5.55;100.00;93658.75;5009124;28;20206;-74
2023/01/09 00:32:26;;;;;;;1999.90;999.90;;;;;;;5.56;100.00;93654.88;5009302;28;20173;-71
2023/01/09 00:34:52;;;;;;;1999.90;999.90;;;;;;;5.59;100.00;93667.59;5008798;28;20208;-74
2023/01/09 00:37:17;;;;;;;1999.90;999.90;;;;;;;5.64;100.00;93672.50;5009162;28;20241;-72
2023/01/09 00:39:42;;;;;;;1999.90;999.90;;;;;;;5.65;100.00;93672.09;5008588;28;20199;-73
2023/01/09 00:42:13;;;;;;;1999.90;999.90;;;;;;;5.71;100.00;93666.97;5008687;28;20274;-74
2023/01/09 00:44:44;;;;;;;1999.90;999.90;;;;;;;5.75;100.00;93656.84;5008776;28;20207;-72
2023/01/09 00:47:16;;;;;;;1999.90;999.90;;;;;;;5.81;100.00;93660.63;5008577;28;20201;-73
2023/01/09 00:49:44;;;;;;;1999.90;999.90;;;;;;;5.84;100.00;93654.41;5008568;28;20235;-72
2023/01/09 00:52:12;;;;;;;1999.90;999.90;;;;;;;5.89;100.00;93648.50;5008371;28;20196;-73
2023/01/09 00:54:39;;;;;;;1999.90;999.90;;;;;;;5.93;100.00;93651.88;5008513;28;20520;-73
2023/01/09 00:57:05;;;;;;;1999.90;999.90;;;;;;;5.95;100.00;93649.53;5008000;28;20216;-70
2023/01/09 00:59:30;;;;;;;1999.90;999.90;;;;;;;5.97;100.00;93652.59;5008734;28;20195;-70
2023/01/09 01:01:57;;;;;;;1999.90;999.90;;;;;;;5.96;100.00;93648.34;5008583;28;20198;-70
2023/01/09 01:09:51;;;;;;;1999.90;999.90;;;;;;;5.98;100.00;93643.28;5026067;28;20227;-70
2023/01/09 01:12:16;;;;;;;1999.90;999.90;;;;;;;6.01;100.00;93634.34;5007984;28;20197;-70
2023/01/09 01:14:41;;;;;;;1999.90;999.90;;;;;;;6.03;100.00;93640.09;5008182;28;20197;-71
2023/01/09 01:17:07;;;;;;;1999.90;999.90;;;;;;;6.02;100.00;93630.44;5008164;28;20215;-71
2023/01/09 01:19:34;;;;;;;1999.90;999.90;;;;;;;6.00;100.00;93630.84;5008042;28;20209;-71
2023/01/09 01:21:59;;;;;;;1999.90;999.90;;;;;;;5.98;100.00;93635.91;5008139;28;20217;-71
2023/01/09 01:24:24;;;;;;;1999.90;999.90;;;;;;;6.00;100.00;93635.50;5008372;28;20201;-71
2023/01/09 01:26:50;;;;;;;1999.90;999.90;;;;;;;5.99;100.00;93629.34;5007893;28;20352;-70
2023/01/09 01:29:15;;;;;;;1999.90;999.90;;;;;;;6.00;100.00;93630.09;5008235;28;20209;-71
2023/01/09 01:31:40;;;;;;;1999.90;999.90;;;;;;;5.97;100.00;93625.50;5007704;28;20204;-70
2023/01/09 01:34:06;;;;;;;1999.90;999.90;;;;;;;5.95;100.00;93614.31;5007703;28;20197;-70
2023/01/09 01:36:32;;;;;;;1999.90;999.90;;;;;;;5.96;100.00;93613.13;5007702;28;20218;-70
2023/01/09 01:38:57;;;;;;;1999.90;999.90;;;;;;;5.93;100.00;93613.97;5008188;28;20203;-70
2023/01/09 01:41:29;;;;;;;1999.90;999.90;;;;;;;5.96;100.00;93623.97;5007675;28;20272;-70
2023/01/09 01:44:00;;;;;;;1999.90;999.90;;;;;;;5.97;100.00;93617.38;5007650;28;20210;-70
2023/01/09 01:46:27;;;;;;;1999.90;999.90;;;;;;;5.98;100.00;93622.38;5007542;28;20197;-72
2023/01/09 01:48:58;;;;;;;1999.90;999.90;;;;;;;6.00;100.00;93619.25;5007588;28;20176;-71
2023/01/09 01:51:27;;;;;;;1999.90;999.90;;;;;;;6.01;100.00;93618.09;5008047;28;20203;-71
2023/01/09 01:53:56;;;;;;;1999.90;999.90;;;;;;;6.01;100.00;93620.78;5007563;28;20270;-71
2023/01/09 01:56:27;;;;;;;1999.90;999.90;;;;;;;6.01;100.00;93608.00;5007265;28;20283;-71
2023/01/09 01:59:14;;;;;;;1999.90;999.90;;;;;;;6.01;100.00;93599.13;5007554;28;20264;-71
2023/01/09 02:01:43;;;;;;;1999.90;999.90;;;;;;;5.99;100.00;93596.06;5007644;28;20270;-76
2023/01/09 02:04:09;;;;;;;1999.90;999.90;;;;;;;5.98;100.00;93605.38;5007528;28;20368;-79
2023/01/09 02:06:36;;;;;;;1999.90;999.90;;;;;;;5.95;100.00;93598.84;5007395;28;20194;-76
2023/01/09 02:09:04;;;;;;;1999.90;999.90;;;;;;;5.92;100.00;93598.91;5009441;28;20198;-76
2023/01/09 02:11:30;;;;;;;1999.90;999.90;;;;;;;5.90;100.00;93599.31;5011935;28;20211;-71
2023/01/09 02:13:56;;;;;;;1999.90;999.90;;;;;;;5.90;100.00;93593.16;5011761;28;20192;-74
2023/01/09 02:16:40;;;;;;;1999.90;999.90;;;;;;;5.89;100.00;93610.56;5011385;28;20203;-72
2023/01/09 02:19:15;;;;;;;1999.90;999.90;;;;;;;5.87;100.00;93605.56;5011458;28;20205;-74
2023/01/09 02:21:52;;;;;;;1999.90;999.90;;;;;;;5.88;100.00;93606.34;5011177;28;20192;-74
2023/01/09 02:24:38;;;;;;;1999.90;999.90;;;;;;;5.85;100.00;93601.75;5011288;28;20201;-75
2023/01/09 02:27:42;;;;;;;1999.90;999.90;;;;;;;5.84;100.00;93589.41;5011687;28;20192;-75
2023/01/09 02:30:30;;;;;;;1999.90;999.90;;;;;;;5.82;100.00;93597.94;4942609;28;20208;-74
2023/01/09 02:33:16;;;;;;;1999.90;999.90;;;;;;;5.80;100.00;93605.66;5011439;28;20193;-74
2023/01/09 02:35:59;;;;;;;1999.90;999.90;;;;;;;5.77;100.00;93594.91;5011011;28;20192;-72
2023/01/09 02:38:47;;;;;;;1999.90;999.90;;;;;;;5.73;100.00;93592.28;5011412;28;20172;-73
2023/01/09 02:41:34;;;;;;;1999.90;999.90;;;;;;;5.71;100.00;93585.75;5010967;28;20198;-74
2023/01/09 02:44:15;;;;;;;1999.90;999.90;;;;;;;5.82;100.00;93581.69;5010648;28;20192;-73
2023/01/09 02:46:41;;;;;;;1999.90;999.90;;;;;;;5.82;100.00;93580.91;5010931;28;20214;-74
2023/01/09 02:49:07;;;;;;;1999.90;999.90;;;;;;;5.74;100.00;93579.50;5010861;28;20211;-76
2023/01/09 02:51:51;;;;;;;1999.90;999.90;;;;;;;5.68;100.00;93570.34;5010807;28;20226;-69
2023/01/09 02:54:29;;;;;;;1999.90;999.90;;;;;;;5.65;100.00;93554.94;5011058;28;20200;-70
2023/01/09 02:57:33;;;;;;;1999.90;999.90;;;;;;;5.75;100.00;93548.53;5011047;28;20212;-70
2023/01/09 03:00:14;;;;;;;1999.90;999.90;;;;;;;5.60;100.00;93539.94;5000111;28;20200;-69
2023/01/09 03:02:48;;;;;;;1999.90;999.90;;;;;;;5.54;100.00;93524.59;5010687;28;20197;-71
2023/01/09 03:05:24;;;;;;;1999.90;999.90;;;;;;;5.47;100.00;93519.31;5010272;28;20192;-70
2023/01/09 03:08:07;;;;;;;1999.90;999.90;;;;;;;5.41;100.00;93496.63;5010847;28;20188;-69
2023/01/09 03:10:47;;;;;;;1999.90;999.90;;;;;;;5.38;100.00;93459.56;5010510;28;20193;-69
2023/01/09 03:13:17;;;;;;;1999.90;999.90;;;;;;;5.40;100.00;93449.09;5010778;28;20203;-70
2023/01/09 03:15:45;;;;;;;1999.90;999.90;;;;;;;5.43;100.00;93434.75;5010361;28;20193;-72
2023/01/09 03:18:13;;;;;;;1999.90;999.90;;;;;;;5.44;100.00;93409.97;5010721;28;20195;-73
2023/01/09 03:20:39;;;;;;;1999.90;999.90;;;;;;;5.55;100.00;93385.38;5009229;28;20216;-73
2023/01/09 03:23:06;;;;;;;1999.90;999.90;;;;;;;5.57;100.00;93354.00;5010946;28;20215;-73
2023/01/09 03:25:32;;;;;;;1999.90;999.90;;;;;;;5.55;100.00;93333.94;5010082;28;20196;-74
2023/01/09 03:28:00;;;;;;;1999.90;999.90;;;;;;;5.56;100.00;93302.97;5010685;28;20335;-75
2023/01/09 03:30:28;;;;;;;1999.90;999.90;;;;;;;5.48;100.00;93275.34;5010169;28;20187;-74
2023/01/09 03:32:54;;;;;;;1999.90;999.90;;;;;;;5.34;100.00;93248.59;5009826;28;20204;-72
2023/01/09 03:35:19;;;;;;;1999.90;999.90;;;;;;;5.43;100.00;93229.06;5010366;28;20380;-76
2023/01/09 03:37:45;;;;;;;1999.90;999.90;;;;;;;5.46;100.00;93198.47;5009991;28;20231;-75
2023/01/09 03:40:10;;;;;;;1999.90;999.90;;;;;;;5.38;100.00;93191.69;5009860;28;20239;-76
2023/01/09 03:42:35;;;;;;;1999.90;999.90;;;;;;;5.35;100.00;93173.63;5010034;28;20207;-76
2023/01/09 03:45:01;;;;;;;1999.90;999.90;;;;;;;5.38;100.00;93142.97;5009701;28;20222;-76
2023/01/09 03:47:26;;;;;;;1999.90;999.90;;;;;;;5.39;100.00;93068.75;5009533;28;20197;-76
2023/01/09 03:49:51;;;;;;;1999.90;999.90;;;;;;;5.54;100.00;93034.72;5009703;28;20192;-73
2023/01/09 03:52:17;;;;;;;1999.90;999.90;;;;;;;5.59;100.00;93010.56;5009802;28;20191;-71
2023/01/09 03:54:42;;;;;;;1999.90;999.90;;;;;;;5.49;100.00;92983.78;5009511;28;20232;-72
2023/01/09 03:57:08;;;;;;;1999.90;999.90;;;;;;;5.55;100.00;92979.38;5009384;28;20204;-71
2023/01/09 03:59:33;;;;;;;1999.90;999.90;;;;;;;5.50;100.00;92964.44;5010134;28;20220;-70
2023/01/09 04:01:58;;;;;;;1999.90;999.90;;;;;;;5.48;100.00;92947.09;5009850;28;20246;-70
2023/01/09 04:04:24;;;;;;;1999.90;999.90;;;;;;;5.44;100.00;92941.03;5009847;28;20199;-73
2023/01/09 04:06:49;;;;;;;1999.90;999.90;;;;;;;5.41;100.00;92917.53;5009617;28;20234;-72
2023/01/09 04:09:14;;;;;;;1999.90;999.90;;;;;;;5.35;100.00;92887.56;5009121;28;20206;-76
2023/01/09 04:11:39;;;;;;;1999.90;999.90;;;;;;;5.38;100.00;92877.81;5009049;28;20197;-75
2023/01/09 04:14:05;;;;;;;1999.90;999.90;;;;;;;5.41;100.00;92841.78;5009373;28;20198;-77
2023/01/09 04:16:30;;;;;;;1999.90;999.90;;;;;;;5.50;100.00;92804.03;5009324;28;20212;-75
2023/01/09 04:18:56;;;;;;;1999.90;999.90;;;;;;;5.48;100.00;92825.34;5009123;28;20202;-74
2023/01/09 04:21:21;;;;;;;1999.90;999.90;;;;;;;5.54;100.00;92801.97;5009198;28;20193;-74
2023/01/09 04:23:46;;;;;;;1999.90;999.90;;;;;;;5.58;100.00;92780.94;5009199;28;20196;-74
2023/01/09 04:26:12;;;;;;;1999.90;999.90;;;;;;;5.63;100.00;92750.63;5009201;28;20207;-78
2023/01/09 04:28:37;;;;;;;1999.90;999.90;;;;;;;5.68;100.00;92748.13;5008862;28;20281;-76
2023/01/09 04:31:04;;;;;;;1999.90;999.90;;;;;;;5.71;100.00;92749.94;5009529;28;20208;-74
2023/01/09 04:33:29;;;;;;;1999.90;999.90;;;;;;;5.76;100.00;92748.66;5009209;28;20219;-74
2023/01/09 04:35:54;;;;;;;1999.90;999.90;;;;;;;5.80;100.00;92735.75;5008874;28;20218;-74
2023/01/09 04:38:20;;;;;;;1999.90;999.90;;;;;;;5.83;100.00;92745.75;5008692;28;20207;-77
2023/01/09 04:40:48;;;;;;;1999.90;999.90;;;;;;;5.85;100.00;92762.28;5008630;28;20202;-73
2023/01/09 04:43:14;;;;;;;1999.90;999.90;;;;;;;5.84;100.00;92769.66;5008947;28;20272;-76
2023/01/09 04:45:39;;;;;;;1999.90;999.90;;;;;;;5.85;100.00;92775.81;5008781;28;20201;-75
2023/01/09 04:48:05;;;;;;;1999.90;999.90;;;;;;;5.89;100.00;92792.72;5008418;28;20264;-75
2023/01/09 04:50:30;;;;;;;1999.90;999.90;;;;;;;5.89;100.00;92804.31;5008406;28;20264;-74
2023/01/09 04:52:56;;;;;;;1999.90;999.90;;;;;;;5.94;100.00;92816.53;5008454;28;20203;-76
2023/01/09 04:55:22;;;;;;;1999.90;999.90;;;;;;;5.97;100.00;92831.91;5009085;28;20199;-76
2023/01/09 04:57:47;;;;;;;1999.90;999.90;;;;;;;6.02;100.00;92836.78;5008359;28;20209;-73
2023/01/09 05:00:13;;;;;;;1999.90;999.90;;;;;;;6.07;100.00;92844.34;5008769;28;20177;-76
2023/01/09 05:02:39;;;;;;;1999.90;999.90;;;;;;;6.12;100.00;92857.34;5008361;28;20193;-73
2023/01/09 05:05:06;;;;;;;1999.90;999.90;;;;;;;6.19;100.00;92862.50;5008785;28;20225;-73
2023/01/09 05:07:32;;;;;;;1999.90;999.90;;;;;;;6.26;100.00;92862.28;5008151;28;20195;-72
2023/01/09 05:09:58;;;;;;;1999.90;999.90;;;;;;;6.34;100.00;92879.84;5008278;28;20204;-72
2023/01/09 05:12:23;;;;;;;1999.90;999.90;;;;;;;6.45;100.00;92901.94;5008082;28;20201;-72
2023/01/09 05:14:49;;;;;;;1999.90;999.90;;;;;;;6.55;100.00;92919.78;5007999;28;20214;-72
2023/01/09 05:17:14;;;;;;;1999.90;999.90;;;;;;;6.67;100.00;92940.69;5008028;28;20213;-74
2023/01/09 05:19:40;;;;;;;1999.90;999.90;;;;;;;6.80;100.00;92969.28;5007879;28;20277;-75
2023/01/09 05:22:05;;;;;;;1999.90;999.90;;;;;;;6.93;100.00;93018.06;5008054;28;20193;-72
2023/01/09 05:24:30;;;;;;;1999.90;999.90;;;;;;;7.04;100.00;93061.13;5007941;28;20272;-71
2023/01/09 05:26:56;;;;;;;1999.90;999.90;;;;;;;7.16;100.00;93109.94;5007746;28;20227;-73
2023/01/09 05:29:21;;;;;;;1999.90;999.90;;;;;;;7.26;100.00;93165.84;5007965;28;20193;-76
2023/01/09 05:31:47;;;;;;;1999.90;999.90;;;;;;;7.35;100.00;93212.06;5008231;28;20166;-71
2023/01/09 05:34:12;;;;;;;1999.90;999.90;;;;;;;7.39;100.00;93294.16;5008388;28;20189;-72
2023/01/09 05:36:37;;;;;;;1999.90;999.90;;;;;;;7.46;100.00;93380.84;5007869;28;20230;-69
2023/01/09 05:39:04;;;;;;;1999.90;999.90;;;;;;;7.48;100.00;93421.91;5008220;28;20194;-68
2023/01/09 05:41:29;;;;;;;1999.90;999.90;;;;;;;7.49;100.00;93488.59;5007500;28;20312;-69
2023/01/09 05:43:55;;;;;;;1999.90;999.90;;;;;;;7.50;100.00;93509.13;5007382;28;20189;-69
2023/01/09 05:46:20;;;;;;;1999.90;999.90;;;;;;;7.51;100.00;93551.41;5007464;28;20271;-69
2023/01/09 05:48:46;;;;;;;1999.90;999.90;;;;;;;7.59;100.00;93596.19;5007631;28;20194;-67
2023/01/09 05:51:11;;;;;;;1999.90;999.90;;;;;;;7.54;100.00;93621.13;5007471;28;20540;-66
2023/01/09 05:53:37;;;;;;;1999.90;999.90;;;;;;;7.51;100.00;93632.88;5007538;28;20355;-67
2023/01/09 05:56:02;;;;;;;1999.90;999.90;;;;;;;7.46;100.00;93657.81;5007599;28;20217;-68
2023/01/09 05:58:27;;;;;;;1999.90;999.90;;;;;;;7.51;100.00;93678.25;5007701;28;20205;-69
2023/01/09 06:00:53;;;;;;;1999.90;999.90;;;;;;;7.49;100.00;93689.53;5007366;28;20231;-71
2023/01/09 06:03:18;;;;;;;1999.90;999.90;;;;;;;7.46;100.00;93712.13;5007179;28;20170;-70
2023/01/09 06:05:44;;;;;;;1999.90;999.90;;;;;;;7.46;100.00;93728.41;5008007;28;20267;-70
2023/01/09 06:08:09;;;;;;;1999.90;999.90;;;;;;;7.48;100.00;93730.69;5007442;28;20201;-72
2023/01/09 06:10:34;;;;;;;1999.90;999.90;;;;;;;7.46;100.00;93728.41;5007473;28;20226;-70
2023/01/09 06:13:00;;;;;;;1999.90;999.90;;;;;;;7.39;100.00;93750.28;5007731;28;20201;-70
2023/01/09 06:15:26;;;;;;;1999.90;999.90;;;;;;;7.39;100.00;93772.00;5007376;28;20285;-69
2023/01/09 06:17:51;;;;;;;1999.90;999.90;;;;;;;7.40;100.00;93795.28;5007180;28;20222;-70
2023/01/09 06:20:16;;;;;;;1999.90;999.90;;;;;;;7.32;100.00;93804.00;5007192;28;20209;-76
2023/01/09 06:22:44;;;;;;;1999.90;999.90;;;;;;;7.33;100.00;93806.31;5007328;28;20206;-70
2023/01/09 06:25:10;;;;;;;1999.90;999.90;;;;;;;7.29;100.00;93805.63;5007127;28;20266;-72
2023/01/09 06:27:35;;;;;;;1999.90;999.90;;;;;;;7.31;100.00;93818.75;5006778;28;20201;-71
2023/01/09 06:30:01;;;;;;;1999.90;999.90;;;;;;;7.27;100.00;93845.97;5007387;28;20208;-71
2023/01/09 06:32:26;;;;;;;1999.90;999.90;;;;;;;7.32;100.00;93864.47;5007687;28;20180;-72
2023/01/09 06:34:51;;;;;;;1999.90;999.90;;;;;;;7.30;100.00;93875.00;5007802;28;20197;-72
2023/01/09 06:37:17;;;;;;;1999.90;999.90;;;;;;;7.28;100.00;93869.22;5007236;28;20219;-69
2023/01/09 06:39:42;;;;;;;1999.90;999.90;;;;;;;7.28;100.00;93874.66;5007012;28;20200;-71
2023/01/09 06:42:07;;;;;;;1999.90;999.90;;;;;;;7.29;100.00;93887.06;5007181;28;20386;-69
2023/01/09 06:44:35;;;;;;;1999.90;999.90;;;;;;;7.21;100.00;93899.22;5007221;28;20216;-72
2023/01/09 06:47:01;;;;;;;1999.90;999.90;;;;;;;7.18;100.00;93880.31;5006839;28;20209;-68
2023/01/09 06:49:26;;;;;;;1999.90;999.90;;;;;;;7.16;100.00;93899.72;5006939;28;20206;-69
2023/01/09 06:51:52;;;;;;;1999.90;999.90;;;;;;;7.16;100.00;93899.72;5006656;28;20254;-69
2023/01/09 06:54:18;;;;;;;1999.90;999.90;;;;;;;7.16;100.00;93902.44;5006726;28;20210;-70
2023/01/09 06:56:43;;;;;;;1999.90;999.90;;;;;;;7.11;100.00;93897.50;5009559;28;20218;-69
2023/01/09 06:59:09;;;;;;;1999.90;999.90;;;;;;;7.10;100.00;93906.81;5010456;28;20213;-67
2023/01/09 07:01:34;;;;;;;1999.90;999.90;;;;;;;7.10;100.00;93901.38;5010733;28;20209;-71
2023/01/09 07:04:00;;;;;;;1999.90;999.90;;;;;;;7.10;100.00;93906.06;5010179;28;20202;-66
2023/01/09 07:06:25;;;;;;;1999.90;999.90;;;;;;;7.02;100.00;93902.69;5010172;28;20209;-66
2023/01/09 07:08:51;;;;;;;1999.90;999.90;;;;;;;7.06;100.00;93906.13;5010689;28;20201;-66
2023/01/09 07:11:16;;;;;;;1999.90;999.90;;;;;;;7.10;100.00;93928.53;5009903;28;20212;-73
2023/01/09 07:13:41;;;;;;;1999.90;999.90;;;;;;;7.05;100.00;93903.81;5009970;28;20200;-69
2023/01/09 07:16:07;;;;;;;1999.90;999.90;;;;;;;7.03;100.00;93923.22;5010107;28;20216;-71
2023/01/09 07:18:32;;;;;;;1999.90;999.90;;;;;;;7.04;100.00;93934.84;5010092;28;20247;-71
2023/01/09 07:20:58;;;;;;;1999.90;999.90;;;;;;;7.05;100.00;93936.38;5009864;28;20209;-68
2023/01/09 07:23:23;;;;;;;1999.90;999.90;;;;;;;7.04;100.00;93930.19;5009981;28;20223;-70
2023/01/09 07:25:50;;;;;;;1999.90;999.90;;;;;;;7.01;100.00;93920.19;5010084;28;20492;-68
2023/01/09 07:28:15;;;;;;;1999.90;999.90;;;;;;;7.04;100.00;93924.00;5009954;28;20220;-71
2023/01/09 07:30:41;;;;;;;1999.90;999.90;;;;;;;6.98;100.00;93940.00;5009722;28;20234;-69
2023/01/09 07:33:06;;;;;;;1999.90;999.90;;;;;;;7.02;100.00;93943.41;5010076;28;20198;-69
2023/01/09 07:35:32;;;;;;;1999.90;999.90;;;;;;;7.08;100.00;93958.03;5009903;28;20370;-69
2023/01/09 07:37:57;;;;;;;1999.90;999.90;;;;;;;7.05;100.00;93953.44;5010074;28;20225;-72
2023/01/09 07:40:23;;;;;;;1999.90;999.90;;;;;;;7.05;100.00;93968.94;5010000;28;20216;-72
2023/01/09 07:42:51;;;;;;;1999.90;999.90;;;;;;;7.04;100.00;93973.63;5009601;28;20269;-71
2023/01/09 07:45:17;;;;;;;1999.90;999.90;;;;;;;7.09;100.00;93981.28;5009446;28;20267;-72
2023/01/09 07:47:42;;;;;;;1999.90;999.90;;;;;;;7.01;100.00;93984.53;5009686;28;20233;-71
2023/01/09 07:50:08;;;;;;;1999.90;999.90;;;;;;;7.09;100.00;93989.41;5010093;28;20197;-71
2023/01/09 07:52:33;;;;;;;1999.90;999.90;;;;;;;7.05;100.00;94001.50;5009587;28;20240;-71
2023/01/09 07:54:59;;;;;;;1999.90;999.90;;;;;;;7.09;100.00;93997.56;5009243;28;20200;-71
2023/01/09 07:57:24;;;;;;;1999.90;999.90;;;;;;;7.08;100.00;94006.88;5009335;28;20205;-72
2023/01/09 07:59:49;;;;;;;1999.90;999.90;;;;;;;7.15;100.00;94012.19;5009615;28;20456;-70
2023/01/09 08:02:16;;;;;;;1999.90;999.90;;;;;;;7.13;100.00;94019.22;5009573;28;20197;-72
2023/01/09 08:04:42;;;;;;;1999.90;999.90;;;;;;;7.07;100.00;94021.66;5009593;28;20207;-72
2023/01/09 08:07:07;;;;;;;1999.90;999.90;;;;;;;7.04;100.00;94022.47;5009329;28;20277;-72
2023/01/09 08:09:32;;;;;;;1999.90;999.90;;;;;;;6.96;100.00;94031.91;5009687;28;20216;-71
2023/01/09 08:11:58;;;;;;;1999.90;999.90;;;;;;;7.00;100.00;94024.47;5009657;28;20303;-73
2023/01/09 08:14:23;;;;;;;1999.90;999.90;;;;;;;6.94;100.00;94007.13;5009576;28;20223;-72
2023/01/09 08:16:48;;;;;;;1999.90;999.90;;;;;;;7.03;100.00;94031.03;5008986;28;20343;-72
2023/01/09 08:19:14;;;;;;;1999.90;999.90;;;;;;;7.05;100.00;94034.06;5009134;28;20237;-72
2023/01/09 08:21:39;;;;;;;1999.90;999.90;;;;;;;7.05;100.00;94040.28;5008982;28;20204;-71
2023/01/09 08:24:05;;;;;;;1999.90;999.90;;;;;;;7.04;100.00;94057.75;5008910;28;20215;-72
2023/01/09 08:26:30;;;;;;;1999.90;999.90;;;;;;;7.03;100.00;94064.34;5008743;28;20228;-72
2023/01/09 08:28:55;;;;;;;1999.90;999.90;;;;;;;6.99;100.00;94069.06;5008902;28;20217;-72
2023/01/09 08:31:21;;;;;;;1999.90;999.90;;;;;;;7.02;100.00;94078.34;5008533;28;20251;-72
2023/01/09 08:33:46;;;;;;;1999.90;999.90;;;;;;;7.02;100.00;94073.66;5009000;28;20201;-71
2023/01/09 08:36:12;;;;;;;1999.90;999.90;;;;;;;6.99;100.00;94087.31;5008437;28;20214;-71
2023/01/09 08:38:37;;;;;;;1999.90;999.90;;;;;;;7.02;100.00;94098.09;5009208;28;20248;-70
2023/01/09 08:47:04;;;;;;;1999.90;999.90;;;;;;;7.03;100.00;94102.34;5008947;28;20247;-70
2023/01/09 08:49:16;;;;;;;1999.90;999.90;;;;;;;7.15;100.00;94131.63;5026066;28;20201;-70
2023/01/09 08:51:41;;;;;;;1999.90;999.90;;;;;;;7.01;100.00;94131.84;5008544;28;20194;-71
2023/01/09 08:54:07;;;;;;;1999.90;999.90;;;;;;;6.98;100.00;94127.22;5008526;28;20202;-72
2023/01/09 08:56:32;;;;;;;1999.90;999.90;;;;;;;6.99;100.00;94134.19;5008173;28;20199;-74
2023/01/09 08:58:57;;;;;;;1999.90;999.90;;;;;;;6.93;100.00;94113.34;5008978;28;20206;-75
2023/01/09 09:01:23;;;;;;;1999.90;999.90;;;;;;;6.86;100.00;94133.22;5008341;28;20202;-75
2023/01/09 09:03:48;;;;;;;1999.90;999.90;;;;;;;7.16;100.00;94148.66;5008423;28;20206;-75
2023/01/09 09:06:13;;;;;;;1999.90;999.90;;;;;;;7.16;100.00;94160.28;5008393;28;20202;-72
2023/01/09 09:08:39;;;;;;;1999.90;999.90;;;;;;;7.25;100.00;94146.97;5007975;28;20201;-72
2023/01/09 09:11:04;;;;;;;1999.90;999.90;;;;;;;7.31;100.00;94156.19;5008575;28;20191;-73
2023/01/09 09:13:29;;;;;;;1999.90;999.90;;;;;;;7.34;100.00;94166.22;5008277;28;20269;-72
2023/01/09 09:15:55;;;;;;;1999.90;999.90;;;;;;;7.55;100.00;94175.97;5007540;28;20198;-73
2023/01/09 09:18:20;;;;;;;1999.90;999.90;;;;;;;7.47;100.00;94174.56;5007214;28;20226;-70
2023/01/09 09:20:46;;;;;;;1999.90;999.90;;;;;;;7.33;100.00;94177.50;5008412;28;20205;-72
2023/01/09 09:23:11;;;;;;;1999.90;999.90;;;;;;;7.32;100.00;94173.25;5007978;28;20194;-73
2023/01/09 09:25:39;;;;;;;1999.90;999.90;;;;;;;7.23;100.00;94176.47;5007572;28;20199;-73
2023/01/09 09:28:05;;;;;;;1999.90;999.90;;;;;;;7.18;100.00;94185.09;5007741;28;20174;-72
2023/01/09 09:30:31;;;;;;;1999.90;999.90;;;;;;;7.21;100.00;94184.25;5007837;28;20288;-74
2023/01/09 09:32:56;;;;;;;1999.90;999.90;;;;;;;7.23;100.00;94187.34;5008094;28;20251;-74
2023/01/09 09:35:22;;;;;;;1999.90;999.90;;;;;;;7.39;100.00;94184.00;5008077;28;20202;-73
2023/01/09 09:37:56;;;;;;;1999.90;999.90;;;;;;;7.54;100.00;94190.75;5007585;28;20228;-73
2023/01/09 09:40:50;;;;;;;1999.90;999.90;;;;;;;7.62;100.00;94206.50;5007549;28;20202;-70
2023/01/09 09:46:44;;;;;;;1999.90;999.90;;;;;;;7.67;100.00;94206.03;5025052;28;20174;-76
2023/01/09 09:49:28;;;;;;;1999.90;999.90;;;;;;;7.67;100.00;94210.69;5008107;28;20202;-71
2023/01/09 09:51:59;;;;;;;1999.90;999.90;;;;;;;7.67;100.00;94211.47;5007783;28;20205;-70
2023/01/09 09:54:48;;;;;;;1999.90;999.90;;;;;;;7.56;100.00;94219.00;5007588;28;20569;-72
2023/01/09 09:57:18;;;;;;;1999.90;999.90;;;;;;;7.50;100.00;94217.19;5007130;28;20261;-74
2023/01/09 09:59:49;;;;;;;1999.90;999.90;;;;;;;7.52;100.00;94207.44;5008047;28;20269;-71
2023/01/09 10:02:29;;;;;;;1999.90;999.90;;;;;;;7.38;100.00;94204.16;5008132;28;20255;-72
2023/01/09 10:05:26;;;;;;;1999.90;999.90;;;;;;;7.49;100.00;94197.41;5007858;28;20352;-74
2023/01/09 10:07:52;;;;;;;1999.90;999.90;;;;;;;7.42;100.00;94200.22;5000002;28;20214;-75
2023/01/09 10:10:22;;;;;;;1999.90;999.90;;;;;;;7.45;100.00;94193.19;5007549;28;20569;-80
2023/01/09 10:12:58;;;;;;;1999.90;999.90;;;;;;;7.42;100.00;94199.44;5007456;28;20233;-77
2023/01/09 10:15:34;;;;;;;1999.90;999.90;;;;;;;7.52;100.00;94198.50;5007602;28;20185;-77
2023/01/09 10:18:45;;;;;;;1999.90;999.90;;;;;;;7.43;100.00;94188.16;5007636;28;20222;-79
2023/01/09 10:21:28;;;;;;;1999.90;999.90;;;;;;;7.46;100.00;94184.63;5007546;28;20269;-78
2023/01/09 10:24:13;;;;;;;1999.90;999.90;;;;;;;7.46;100.00;94175.75;5007441;28;20205;-77
2023/01/09 10:26:47;;;;;;;1999.90;999.90;;;;;;;7.51;100.00;94181.47;5007796;28;20464;-69
2023/01/09 10:29:50;;;;;;;1999.90;999.90;;;;;;;7.59;100.00;94188.31;5008121;28;20216;-69
2023/01/09 10:32:34;;;;;;;1999.90;999.90;;;;;;;7.73;100.00;94187.31;5010943;28;20205;-69
2023/01/09 10:35:13;;;;;;;1999.90;999.90;;;;;;;7.79;100.00;94191.84;5010787;28;20213;-71
2023/01/09 10:37:46;;;;;;;1999.90;999.90;;;;;;;7.77;100.00;94182.56;5010268;28;20225;-72
2023/01/09 10:40:27;;;;;;;1999.90;999.90;;;;;;;7.75;100.00;94193.09;5011906;28;20233;-69
2023/01/09 10:42:59;;;;;;;1999.90;999.90;;;;;;;7.76;100.00;94184.50;5011162;28;20276;-68
2023/01/09 10:45:32;;;;;;;1999.90;999.90;;;;;;;7.80;100.00;94193.41;5010670;28;20279;-72
2023/01/09 10:48:09;;;;;;;1999.90;999.90;;;;;;;7.94;100.00;94204.00;5011222;28;20205;-73
2023/01/09 10:50:38;;;;;;;1999.90;999.90;;;;;;;7.94;100.00;94184.97;5010732;28;20194;-74
2023/01/09 10:53:15;;;;;;;1999.90;999.90;;;;;;;8.03;100.00;94182.50;5010623;28;20186;-68
2023/01/09 10:55:46;;;;;;;1999.90;999.90;;;;;;;8.08;100.00;94187.44;5010707;28;20197;-69
2023/01/09 10:58:22;;;;;;;1999.90;999.90;;;;;;;8.15;100.00;94186.53;5010838;28;20217;-71
2023/01/09 11:00:49;;;;;;;1999.90;999.90;;;;;;;8.22;100.00;94187.22;5010709;28;20220;-68
2023/01/09 11:03:17;;;;;;;1999.90;999.90;;;;;;;8.17;100.00;94181.47;5010494;28;20199;-70
2023/01/09 11:05:49;;;;;;;1999.90;999.90;;;;;;;8.10;100.00;94189.75;5010518;28;20214;-68
2023/01/09 11:08:40;;;;;;;1999.90;999.90;;;;;;;8.10;100.00;94193.25;5010906;28;20290;-70
2023/01/09 11:11:07;;;;;;;1999.90;999.90;;;;;;;8.16;100.00;94183.41;5010106;28;20198;-72
2023/01/09 11:13:35;;;;;;;1999.90;999.90;;;;;;;8.03;100.00;94184.44;5010470;28;20198;-73
2023/01/09 11:16:09;;;;;;;1999.90;999.90;;;;;;;8.04;100.00;94183.25;5010042;28;20198;-73